Time;durP1;ratioP1;P1;durP2;ratioP2;P2;SDS_P1;SDS_P2;PMS_P1;PMS_P2;Temp;Humidity;BMP_temperature;BMP_pressure;BME280_temperature;BME280_humidity;BME280_pressure;Samples;Min_cycle;Max_cycle;Signal;HPM_P1;HPM_P2
2022/10/27 00:02:02;;;;;;;;;;;;;;;;;;5015760;28;20000;-23
2022/10/27 00:04:28;;;;;;;;;;;;;;;;;;5015446;28;20328;-23
2022/10/27 00:06:54;;;;;;;;;;;;;;;;;;5015339;28;19936;-23
2022/10/27 00:09:20;;;;;;;;;;;;;;;;;;5015659;28;19920;-23
2022/10/27 00:11:46;;;;;;;;;;;;;;;;;;5015377;28;20022;-23
2022/10/27 00:14:12;;;;;;;;;;;;;;;;;;5015310;28;19911;-24
2022/10/27 00:16:38;;;;;;;;;;;;;;;;;;5015476;28;19979;-22
2022/10/27 00:19:04;;;;;;;;;;;;;;;;;;5015005;28;19913;-23
2022/10/27 00:21:30;;;;;;;;;;;;;;;;;;5014949;28;19914;-22
2022/10/27 00:23:56;;;;;;;;;;;;;;;;;;5015170;28;20272;-23
2022/10/27 00:26:22;;;;;;;;;;;;;;;;;;4997773;28;19917;-23
2022/10/27 00:28:48;;;;;;;;;;;;;;;;;;5015017;28;19967;-23
2022/10/27 00:31:14;;;;;;;;;;;;;;;;;;5015146;28;19921;-23
2022/10/27 00:33:40;;;;;;;;;;;;;;;;;;5015304;28;19943;-22
2022/10/27 00:36:06;;;;;;;;;;;;;;;;;;5015002;28;19917;-23
2022/10/27 00:38:32;;;;;;;;;;;;;;;;;;5014945;28;20036;-22
2022/10/27 00:40:58;;;;;;;;;;;;;;;;;;5015007;28;19914;-24
2022/10/27 00:43:24;;;;;;;;;;;;;;;;;;4997633;28;19950;-23
2022/10/27 00:45:50;;;;;;;;;;;;;;;;;;5015315;28;19997;-24
2022/10/27 00:48:16;;;;;;;;;;;;;;;;;;5014827;28;19972;-24
2022/10/27 00:50:42;;;;;;;;;;;;;;;;;;5015288;28;19913;-24
2022/10/27 00:53:08;;;;;;;;;;;;;;;;;;4997697;28;19983;-24
2022/10/27 00:55:34;;;;;;;;;;;;;;;;;;5014787;28;19917;-23
2022/10/27 00:58:00;;;;;;;;;;;;;;;;;;5014596;28;19921;-24
2022/10/27 01:00:26;;;;;;;;;;;;;;;;;;5015134;28;19913;-24
2022/10/27 01:02:52;;;;;;;;;;;;;;;;;;5015086;28;19917;-23
2022/10/27 01:05:18;;;;;;;;;;;;;;;;;;5015066;28;19913;-23
2022/10/27 01:07:44;;;;;;;;;;;;;;;;;;5014752;28;20364;-23
2022/10/27 01:10:10;;;;;;;;;;;;;;;;;;5015077;28;19916;-24
2022/10/27 01:12:36;;;;;;;;;;;;;;;;;;5014667;28;20335;-23
2022/10/27 01:15:02;;;;;;;;;;;;;;;;;;5014923;28;19924;-24
2022/10/27 01:17:28;;;;;;;;;;;;;;;;;;4997343;28;19924;-24
2022/10/27 01:19:54;;;;;;;;;;;;;;;;;;5014941;28;20260;-24
2022/10/27 01:22:20;;;;;;;;;;;;;;;;;;5014614;28;20036;-23
2022/10/27 01:24:46;;;;;;;;;;;;;;;;;;5014619;28;19920;-24
2022/10/27 01:27:12;;;;;;;;;;;;;;;;;;5014808;28;19914;-24
2022/10/27 01:29:38;;;;;;;;;;;;;;;;;;5014868;28;19940;-24
2022/10/27 01:32:04;;;;;;;;;;;;;;;;;;5016820;28;19917;-23
2022/10/27 01:34:30;;;;;;;;;;;;;;;;;;5018178;28;19949;-23
2022/10/27 01:36:56;;;;;;;;;;;;;;;;;;5018337;28;19921;-24
2022/10/27 01:39:22;;;;;;;;;;;;;;;;;;5018096;28;19909;-24
2022/10/27 01:41:48;;;;;;;;;;;;;;;;;;5018355;28;19909;-24
2022/10/27 01:44:14;;;;;;;;;;;;;;;;;;5000776;28;20311;-24
2022/10/27 01:46:40;;;;;;;;;;;;;;;;;;5017954;28;19967;-24
2022/10/27 01:49:06;;;;;;;;;;;;;;;;;;5017896;28;19910;-24
2022/10/27 01:51:32;;;;;;;;;;;;;;;;;;5018154;28;19913;-23
2022/10/27 01:53:58;;;;;;;;;;;;;;;;;;5018135;28;19971;-23
2022/10/27 01:56:24;;;;;;;;;;;;;;;;;;5017753;28;19928;-24
2022/10/27 01:58:50;;;;;;;;;;;;;;;;;;5017616;28;19921;-24
2022/10/27 02:01:16;;;;;;;;;;;;;;;;;;5017977;28;19913;-24
2022/10/27 02:03:44;;;;;;;;;;;;;;;;;;5000335;28;20279;-23
2022/10/27 02:06:10;;;;;;;;;;;;;;;;;;5017935;28;19914;-23
2022/10/27 02:08:36;;;;;;;;;;;;;;;;;;5017506;28;19913;-24
2022/10/27 02:11:02;;;;;;;;;;;;;;;;;;5000239;28;20260;-24
2022/10/27 02:13:34;;;;;;;;;;;;;;;;;;5018144;28;19976;-24
2022/10/27 02:16:01;;;;;;;;;;;;;;;;;;5021717;28;19971;-24
2022/10/27 02:18:30;;;;;;;;;;;;;;;;;;5019857;28;19913;-24
2022/10/27 02:20:58;;;;;;;;;;;;;;;;;;5003081;28;20348;-24
2022/10/27 02:23:25;;;;;;;;;;;;;;;;;;5003767;28;19913;-24
2022/10/27 02:25:52;;;;;;;;;;;;;;;;;;5020128;28;19920;-24
2022/10/27 02:28:21;;;;;;;;;;;;;;;;;;5003109;28;19913;-24
2022/10/27 02:30:50;;;;;;;;;;;;;;;;;;5003135;28;19924;-24
2022/10/27 02:36:03;;;;;;;;;;;;;;;;;;5019755;28;20416;-23
2022/10/27 02:38:32;;;;;;;;;;;;;;;;;;5003402;28;19949;-24
2022/10/27 02:46:56;;;;;;;;;;;;;;;;;;5020765;28;19924;-24
2022/10/27 02:55:00;;;;;;;;;;;;;;;;;;5021480;28;19929;-24
2022/10/27 02:57:27;;;;;;;;;;;;;;;;;;5002795;28;20019;-24
2022/10/27 03:02:38;;;;;;;;;;;;;;;;;;5019116;28;19984;-24
2022/10/27 03:07:50;;;;;;;;;;;;;;;;;;5019707;28;19976;-24
2022/10/27 03:29:53;;;;;;;;;;;;;;;;;;5038065;28;19980;-24
2022/10/27 03:32:20;;;;;;;;;;;;;;;;;;5038563;28;19917;-24
2022/10/27 03:34:47;;;;;;;;;;;;;;;;;;5021407;28;19919;-23
2022/10/27 03:37:15;;;;;;;;;;;;;;;;;;5020944;28;19913;-24
2022/10/27 03:39:42;;;;;;;;;;;;;;;;;;5038574;28;19924;-24
2022/10/27 03:42:09;;;;;;;;;;;;;;;;;;5038940;28;19983;-24
2022/10/27 03:44:37;;;;;;;;;;;;;;;;;;5021439;28;19913;-23
2022/10/27 03:47:05;;;;;;;;;;;;;;;;;;5038813;28;19909;-24
2022/10/27 03:49:33;;;;;;;;;;;;;;;;;;5038718;28;19924;-24
2022/10/27 03:52:00;;;;;;;;;;;;;;;;;;5038779;28;19917;-24
2022/10/27 03:54:29;;;;;;;;;;;;;;;;;;5037904;28;19920;-24
2022/10/27 03:56:57;;;;;;;;;;;;;;;;;;5038200;28;19917;-24
2022/10/27 03:59:25;;;;;;;;;;;;;;;;;;5020744;28;19909;-24
2022/10/27 04:04:31;;;;;;;;;;;;;;;;;;5033732;28;19979;-22
2022/10/27 04:06:57;;;;;;;;;;;;;;;;;;5034892;28;19917;-23
2022/10/27 04:09:24;;;;;;;;;;;;;;;;;;5034500;28;20058;-24
2022/10/27 04:11:50;;;;;;;;;;;;;;;;;;5034990;28;20243;-24
2022/10/27 04:14:16;;;;;;;;;;;;;;;;;;5034656;28;20366;-24
2022/10/27 04:16:42;;;;;;;;;;;;;;;;;;5034539;28;20012;-25
2022/10/27 04:19:08;;;;;;;;;;;;;;;;;;5034401;28;20261;-24
2022/10/27 04:21:34;;;;;;;;;;;;;;;;;;5034427;28;20011;-24
2022/10/27 04:24:00;;;;;;;;;;;;;;;;;;5016864;28;19924;-25
2022/10/27 04:26:26;;;;;;;;;;;;;;;;;;5034391;28;19921;-25
2022/10/27 04:28:52;;;;;;;;;;;;;;;;;;5034529;28;19917;-25
2022/10/27 04:31:18;;;;;;;;;;;;;;;;;;5034081;28;19963;-25
2022/10/27 04:33:44;;;;;;;;;;;;;;;;;;5034466;28;19919;-25
2022/10/27 04:36:10;;;;;;;;;;;;;;;;;;5034340;28;20008;-22
2022/10/27 04:38:36;;;;;;;;;;;;;;;;;;5034564;28;19967;-25
2022/10/27 04:41:02;;;;;;;;;;;;;;;;;;5034660;28;19917;-25
2022/10/27 04:43:28;;;;;;;;;;;;;;;;;;5034582;28;20279;-25
2022/10/27 04:45:54;;;;;;;;;;;;;;;;;;5034672;28;19976;-25
2022/10/27 04:48:20;;;;;;;;;;;;;;;;;;5034733;28;19913;-24
2022/10/27 04:50:46;;;;;;;;;;;;;;;;;;5034204;28;19921;-25
2022/10/27 04:53:12;;;;;;;;;;;;;;;;;;5034233;28;19920;-24
2022/10/27 04:55:38;;;;;;;;;;;;;;;;;;5034455;28;20013;-23
2022/10/27 04:58:04;;;;;;;;;;;;;;;;;;5034930;28;19936;-23
2022/10/27 05:00:30;;;;;;;;;;;;;;;;;;5034110;28;19986;-24
2022/10/27 05:02:56;;;;;;;;;;;;;;;;;;5033784;28;20011;-24
2022/10/27 05:05:22;;;;;;;;;;;;;;;;;;5034030;28;19931;-24
2022/10/27 05:07:48;;;;;;;;;;;;;;;;;;5037748;28;20019;-24
2022/10/27 05:10:13;;;;;;;;;;;;;;;;;;5038330;28;19920;-25
2022/10/27 05:12:40;;;;;;;;;;;;;;;;;;5020396;28;19951;-24
2022/10/27 05:15:06;;;;;;;;;;;;;;;;;;5020252;28;19921;-25
2022/10/27 05:17:32;;;;;;;;;;;;;;;;;;5037651;28;20001;-24
2022/10/27 05:19:58;;;;;;;;;;;;;;;;;;5037864;28;19909;-24
2022/10/27 05:22:24;;;;;;;;;;;;;;;;;;5037369;28;19996;-25
2022/10/27 05:24:50;;;;;;;;;;;;;;;;;;5019934;28;20327;-22
2022/10/27 05:27:16;;;;;;;;;;;;;;;;;;5037492;28;20237;-24
2022/10/27 05:29:42;;;;;;;;;;;;;;;;;;5037538;28;20351;-24
2022/10/27 05:32:08;;;;;;;;;;;;;;;;;;5037188;28;19960;-23
2022/10/27 05:34:34;;;;;;;;;;;;;;;;;;5036939;28;19913;-24
2022/10/27 05:37:00;;;;;;;;;;;;;;;;;;5037128;28;19917;-24
2022/10/27 05:39:26;;;;;;;;;;;;;;;;;;5037622;28;19913;-24
2022/10/27 05:41:52;;;;;;;;;;;;;;;;;;5037562;28;19913;-23
2022/10/27 05:44:18;;;;;;;;;;;;;;;;;;5020220;28;19967;-24
2022/10/27 05:46:44;;;;;;;;;;;;;;;;;;5037814;28;19913;-24
2022/10/27 05:49:10;;;;;;;;;;;;;;;;;;5037477;28;19909;-24
2022/10/27 05:51:36;;;;;;;;;;;;;;;;;;5037211;28;20371;-24
2022/10/27 05:54:01;;;;;;;;;;;;;;;;;;5037195;28;19909;-24
2022/10/27 05:56:27;;;;;;;;;;;;;;;;;;5037270;28;19924;-23
2022/10/27 05:58:54;;;;;;;;;;;;;;;;;;5037557;28;19952;-24
2022/10/27 06:01:20;;;;;;;;;;;;;;;;;;5036796;28;19913;-24
2022/10/27 06:03:46;;;;;;;;;;;;;;;;;;5018755;28;19932;-23
2022/10/27 06:06:12;;;;;;;;;;;;;;;;;;5037055;28;19924;-24
2022/10/27 06:08:38;;;;;;;;;;;;;;;;;;5036823;28;20351;-24
2022/10/27 06:11:04;;;;;;;;;;;;;;;;;;5037227;28;19920;-24
2022/10/27 06:13:30;;;;;;;;;;;;;;;;;;5036740;28;19908;-24
2022/10/27 06:15:56;;;;;;;;;;;;;;;;;;5036291;28;19917;-23
2022/10/27 06:18:22;;;;;;;;;;;;;;;;;;5017631;28;19963;-24
2022/10/27 06:20:48;;;;;;;;;;;;;;;;;;5036440;28;20251;-23
2022/10/27 06:23:14;;;;;;;;;;;;;;;;;;5036578;28;20070;-24
2022/10/27 06:25:40;;;;;;;;;;;;;;;;;;5036516;28;19920;-24
2022/10/27 06:28:06;;;;;;;;;;;;;;;;;;5036186;28;19913;-24
2022/10/27 06:30:32;;;;;;;;;;;;;;;;;;5036404;28;20320;-24
2022/10/27 06:32:58;;;;;;;;;;;;;;;;;;5036095;28;19921;-24
2022/10/27 06:35:24;;;;;;;;;;;;;;;;;;5018819;28;19913;-24
2022/10/27 06:37:50;;;;;;;;;;;;;;;;;;5037093;28;20071;-24
2022/10/27 06:40:16;;;;;;;;;;;;;;;;;;5019169;28;19940;-24
2022/10/27 06:42:42;;;;;;;;;;;;;;;;;;5036374;28;19940;-24
2022/10/27 06:45:08;;;;;;;;;;;;;;;;;;5036527;28;19920;-24
2022/10/27 06:47:34;;;;;;;;;;;;;;;;;;5036483;28;19944;-24
2022/10/27 06:50:00;;;;;;;;;;;;;;;;;;5036767;28;19910;-24
2022/10/27 06:52:26;;;;;;;;;;;;;;;;;;5036261;28;19917;-24
2022/10/27 06:54:52;;;;;;;;;;;;;;;;;;5036144;28;19963;-24
2022/10/27 06:57:18;;;;;;;;;;;;;;;;;;5035799;28;19913;-24
2022/10/27 06:59:44;;;;;;;;;;;;;;;;;;5035865;28;19920;-24
2022/10/27 07:02:10;;;;;;;;;;;;;;;;;;5035766;28;19924;-24
2022/10/27 07:04:36;;;;;;;;;;;;;;;;;;5036635;28;19909;-24
2022/10/27 07:07:02;;;;;;;;;;;;;;;;;;5018440;28;20012;-24
2022/10/27 07:09:28;;;;;;;;;;;;;;;;;;5035648;28;19909;-24
2022/10/27 07:11:54;;;;;;;;;;;;;;;;;;5018151;28;20314;-23
2022/10/27 07:14:21;;;;;;;;;;;;;;;;;;5035747;28;20326;-24
2022/10/27 07:16:47;;;;;;;;;;;;;;;;;;5035599;28;20247;-24
2022/10/27 07:19:13;;;;;;;;;;;;;;;;;;5035422;28;20008;-24
2022/10/27 07:21:39;;;;;;;;;;;;;;;;;;5035421;28;19913;-24
2022/10/27 07:24:05;;;;;;;;;;;;;;;;;;5035457;28;19940;-24
2022/10/27 07:26:31;;;;;;;;;;;;;;;;;;5035365;28;19913;-24
2022/10/27 07:28:57;;;;;;;;;;;;;;;;;;5035190;28;19917;-23
2022/10/27 07:31:23;;;;;;;;;;;;;;;;;;5035534;28;19920;-24
2022/10/27 07:33:49;;;;;;;;;;;;;;;;;;5035127;28;19920;-23
2022/10/27 07:36:15;;;;;;;;;;;;;;;;;;5035106;28;19974;-24
2022/10/27 07:38:41;;;;;;;;;;;;;;;;;;5035206;28;19921;-24
2022/10/27 07:41:07;;;;;;;;;;;;;;;;;;5035223;28;20055;-24
2022/10/27 07:43:35;;;;;;;;;;;;;;;;;;5035353;28;19978;-24
2022/10/27 07:46:01;;;;;;;;;;;;;;;;;;5035356;28;20342;-24
2022/10/27 07:48:27;;;;;;;;;;;;;;;;;;5035541;28;19909;-24
2022/10/27 07:50:54;;;;;;;;;;;;;;;;;;5035429;28;19968;-24
2022/10/27 07:53:20;;;;;;;;;;;;;;;;;;5035134;28;20351;-24
2022/10/27 07:55:46;;;;;;;;;;;;;;;;;;5034741;28;19928;-24
2022/10/27 07:58:12;;;;;;;;;;;;;;;;;;5035254;28;19914;-24
2022/10/27 08:00:38;;;;;;;;;;;;;;;;;;5034597;28;19910;-24
2022/10/27 08:03:04;;;;;;;;;;;;;;;;;;5034259;28;20016;-25
2022/10/27 08:05:30;;;;;;;;;;;;;;;;;;5034591;28;20285;-25
2022/10/27 08:07:56;;;;;;;;;;;;;;;;;;5034488;28;19960;-25
2022/10/27 08:10:22;;;;;;;;;;;;;;;;;;5017079;28;19936;-23
2022/10/27 08:12:48;;;;;;;;;;;;;;;;;;5034135;28;19966;-23
2022/10/27 08:15:14;;;;;;;;;;;;;;;;;;5034314;28;19970;-23
2022/10/27 08:17:41;;;;;;;;;;;;;;;;;;5034316;28;19913;-24
2022/10/27 08:20:07;;;;;;;;;;;;;;;;;;5017037;28;20335;-23
2022/10/27 08:22:32;;;;;;;;;;;;;;;;;;5034560;28;19924;-23
2022/10/27 08:24:59;;;;;;;;;;;;;;;;;;5034231;28;19909;-23
2022/10/27 08:27:25;;;;;;;;;;;;;;;;;;5034565;28;19912;-24
2022/10/27 08:29:51;;;;;;;;;;;;;;;;;;5034592;28;19935;-24
2022/10/27 08:32:17;;;;;;;;;;;;;;;;;;5034587;28;19913;-24
2022/10/27 08:34:43;;;;;;;;;;;;;;;;;;5034687;28;19940;-23
2022/10/27 08:37:09;;;;;;;;;;;;;;;;;;5034250;28;20331;-24
2022/10/27 08:39:35;;;;;;;;;;;;;;;;;;5034399;28;19924;-24
2022/10/27 08:42:01;;;;;;;;;;;;;;;;;;5033384;28;19995;-24
2022/10/27 08:44:27;;;;;;;;;;;;;;;;;;5016539;28;20389;-24
2022/10/27 08:46:53;;;;;;;;;;;;;;;;;;5033828;28;19917;-24
2022/10/27 08:49:19;;;;;;;;;;;;;;;;;;5016222;28;20371;-24
2022/10/27 08:51:45;;;;;;;;;;;;;;;;;;5015958;28;19924;-24
2022/10/27 08:54:11;;;;;;;;;;;;;;;;;;5033463;28;19986;-24
2022/10/27 08:56:38;;;;;;;;;;;;;;;;;;5033499;28;19967;-25
2022/10/27 08:59:04;;;;;;;;;;;;;;;;;;5033431;28;19909;-25
2022/10/27 09:01:30;;;;;;;;;;;;;;;;;;5033374;28;19941;-24
2022/10/27 09:03:56;;;;;;;;;;;;;;;;;;5033264;28;19978;-25
2022/10/27 09:06:23;;;;;;;;;;;;;;;;;;5033610;28;19939;-24
2022/10/27 09:08:49;;;;;;;;;;;;;;;;;;5033301;28;19913;-24
2022/10/27 09:11:15;;;;;;;;;;;;;;;;;;5033480;28;20009;-24
2022/10/27 09:13:41;;;;;;;;;;;;;;;;;;5015875;28;19948;-25
2022/10/27 09:16:07;;;;;;;;;;;;;;;;;;5033378;28;20012;-24
2022/10/27 09:18:33;;;;;;;;;;;;;;;;;;5033230;28;20000;-25
2022/10/27 09:20:59;;;;;;;;;;;;;;;;;;5033412;28;19913;-24
2022/10/27 09:23:25;;;;;;;;;;;;;;;;;;5033372;28;19920;-23
2022/10/27 09:25:51;;;;;;;;;;;;;;;;;;5033824;28;19917;-23
2022/10/27 09:28:18;;;;;;;;;;;;;;;;;;5033958;28;20004;-23
2022/10/27 09:30:44;;;;;;;;;;;;;;;;;;5033748;28;19913;-23
2022/10/27 09:33:10;;;;;;;;;;;;;;;;;;5033853;28;20003;-24
2022/10/27 09:35:36;;;;;;;;;;;;;;;;;;5034025;28;19917;-24
2022/10/27 09:38:02;;;;;;;;;;;;;;;;;;5033862;28;20296;-24
2022/10/27 09:40:28;;;;;;;;;;;;;;;;;;5016495;28;20235;-25
2022/10/27 09:42:54;;;;;;;;;;;;;;;;;;5034031;28;19913;-28
2022/10/27 09:45:20;;;;;;;;;;;;;;;;;;5033778;28;19913;-25
2022/10/27 09:47:46;;;;;;;;;;;;;;;;;;5033383;28;19932;-25
2022/10/27 09:50:12;;;;;;;;;;;;;;;;;;5033542;28;19952;-26
2022/10/27 09:52:38;;;;;;;;;;;;;;;;;;5035021;28;20307;-25
2022/10/27 09:55:04;;;;;;;;;;;;;;;;;;5037212;28;19920;-24
2022/10/27 09:57:30;;;;;;;;;;;;;;;;;;5037496;28;19921;-24
2022/10/27 09:59:56;;;;;;;;;;;;;;;;;;5037187;28;19913;-24
2022/10/27 10:02:22;;;;;;;;;;;;;;;;;;5036774;28;20359;-24
2022/10/27 10:04:48;;;;;;;;;;;;;;;;;;5037468;28;19924;-25
2022/10/27 10:07:14;;;;;;;;;;;;;;;;;;5037360;28;19913;-24
2022/10/27 10:09:40;;;;;;;;;;;;;;;;;;5037232;28;19961;-25
2022/10/27 10:12:06;;;;;;;;;;;;;;;;;;5036908;28;19913;-23
2022/10/27 10:14:32;;;;;;;;;;;;;;;;;;5036871;28;19920;-24
2022/10/27 10:16:58;;;;;;;;;;;;;;;;;;5036573;28;20011;-24
2022/10/27 10:19:24;;;;;;;;;;;;;;;;;;5036830;28;19914;-24
2022/10/27 10:21:50;;;;;;;;;;;;;;;;;;5037125;28;19975;-25
2022/10/27 10:24:16;;;;;;;;;;;;;;;;;;5036692;28;19909;-24
2022/10/27 10:26:42;;;;;;;;;;;;;;;;;;5036683;28;20362;-25
2022/10/27 10:29:08;;;;;;;;;;;;;;;;;;5036255;28;19961;-24
2022/10/27 10:31:35;;;;;;;;;;;;;;;;;;5018581;28;20041;-24
2022/10/27 10:34:01;;;;;;;;;;;;;;;;;;5036261;28;19967;-24
2022/10/27 10:36:28;;;;;;;;;;;;;;;;;;5036113;28;19928;-25
2022/10/27 10:38:57;;;;;;;;;;;;;;;;;;5036749;28;19910;-25
2022/10/27 10:41:23;;;;;;;;;;;;;;;;;;5036773;28;19924;-25
2022/10/27 10:43:49;;;;;;;;;;;;;;;;;;5036260;28;19913;-25
2022/10/27 10:46:15;;;;;;;;;;;;;;;;;;5036175;28;19909;-24
2022/10/27 10:48:43;;;;;;;;;;;;;;;;;;5036148;28;20295;-25
2022/10/27 10:51:09;;;;;;;;;;;;;;;;;;5036365;28;20047;-24
2022/10/27 10:53:37;;;;;;;;;;;;;;;;;;5036317;28;19995;-24
2022/10/27 10:56:03;;;;;;;;;;;;;;;;;;5036110;28;19961;-24
2022/10/27 10:58:29;;;;;;;;;;;;;;;;;;5036242;28;20378;-24
2022/10/27 11:00:55;;;;;;;;;;;;;;;;;;5035616;28;19914;-24
2022/10/27 11:03:21;;;;;;;;;;;;;;;;;;5034678;28;19999;-25
2022/10/27 11:05:47;;;;;;;;;;;;;;;;;;5035089;28;20005;-25
2022/10/27 11:08:13;;;;;;;;;;;;;;;;;;5035249;28;20343;-25
2022/10/27 11:10:39;;;;;;;;;;;;;;;;;;5035327;28;19913;-25
2022/10/27 11:13:05;;;;;;;;;;;;;;;;;;5035065;28;20082;-25
2022/10/27 11:15:31;;;;;;;;;;;;;;;;;;5034950;28;20008;-24
2022/10/27 11:17:57;;;;;;;;;;;;;;;;;;5017629;28;19928;-24
2022/10/27 11:20:23;;;;;;;;;;;;;;;;;;5035493;28;19913;-24
2022/10/27 11:22:52;;;;;;;;;;;;;;;;;;5034714;28;21334;-24
2022/10/27 11:25:18;;;;;;;;;;;;;;;;;;5035390;28;20008;-24
2022/10/27 11:27:53;;;;;;;;;;;;;;;;;;5035746;28;20285;-24
2022/10/27 11:30:20;;;;;;;;;;;;;;;;;;5035413;28;19992;-24
2022/10/27 11:32:46;;;;;;;;;;;;;;;;;;5035409;28;19978;-23
2022/10/27 11:35:12;;;;;;;;;;;;;;;;;;5035404;28;19921;-24
2022/10/27 11:37:38;;;;;;;;;;;;;;;;;;5035275;28;19913;-24
2022/10/27 11:40:04;;;;;;;;;;;;;;;;;;5035392;28;19932;-23
2022/10/27 11:42:30;;;;;;;;;;;;;;;;;;5034696;28;19962;-24
2022/10/27 11:44:56;;;;;;;;;;;;;;;;;;5034292;28;20250;-24
2022/10/27 11:47:22;;;;;;;;;;;;;;;;;;5034417;28;19928;-24
2022/10/27 11:49:48;;;;;;;;;;;;;;;;;;5034315;28;20335;-24
2022/10/27 11:52:14;;;;;;;;;;;;;;;;;;5034739;28;19932;-23
2022/10/27 11:54:40;;;;;;;;;;;;;;;;;;5034569;28;19923;-23
2022/10/27 11:57:06;;;;;;;;;;;;;;;;;;5034488;28;20000;-24
2022/10/27 11:59:32;;;;;;;;;;;;;;;;;;5034856;28;19913;-24
2022/10/27 12:01:58;;;;;;;;;;;;;;;;;;5034969;28;19932;-24
2022/10/27 12:04:24;;;;;;;;;;;;;;;;;;5034816;28;19921;-24
2022/10/27 12:06:50;;;;;;;;;;;;;;;;;;5035287;28;19913;-24
2022/10/27 12:09:16;;;;;;;;;;;;;;;;;;5035077;28;20291;-24
2022/10/27 12:11:42;;;;;;;;;;;;;;;;;;5034304;28;19963;-23
2022/10/27 12:14:08;;;;;;;;;;;;;;;;;;5034557;28;19979;-30
2022/10/27 12:16:34;;;;;;;;;;;;;;;;;;5033667;28;19925;-24
2022/10/27 12:19:00;;;;;;;;;;;;;;;;;;5034497;28;20323;-24
2022/10/27 12:21:26;;;;;;;;;;;;;;;;;;5034216;28;19993;-24
2022/10/27 12:23:52;;;;;;;;;;;;;;;;;;5034338;28;19963;-24
2022/10/27 12:26:18;;;;;;;;;;;;;;;;;;5016949;28;19913;-24
2022/10/27 12:28:44;;;;;;;;;;;;;;;;;;5034675;28;19959;-24
2022/10/27 12:31:10;;;;;;;;;;;;;;;;;;5016926;28;20402;-24
2022/10/27 12:33:36;;;;;;;;;;;;;;;;;;5016965;28;19967;-24
2022/10/27 12:36:02;;;;;;;;;;;;;;;;;;5034663;28;19921;-24
2022/10/27 12:38:28;;;;;;;;;;;;;;;;;;5034528;28;19913;-24
2022/10/27 12:40:54;;;;;;;;;;;;;;;;;;5034670;28;19952;-24
2022/10/27 12:43:20;;;;;;;;;;;;;;;;;;5016732;28;19992;-24
2022/10/27 12:45:46;;;;;;;;;;;;;;;;;;5034362;28;19914;-24
2022/10/27 12:48:12;;;;;;;;;;;;;;;;;;5034143;28;20387;-24
2022/10/27 12:50:38;;;;;;;;;;;;;;;;;;5034318;28;19924;-24
2022/10/27 12:53:04;;;;;;;;;;;;;;;;;;5034171;28;20340;-24
2022/10/27 12:55:30;;;;;;;;;;;;;;;;;;5034284;28;19965;-23
2022/10/27 12:57:56;;;;;;;;;;;;;;;;;;5034432;28;20244;-23
2022/10/27 13:00:22;;;;;;;;;;;;;;;;;;5034248;28;19913;-24
2022/10/27 13:02:49;;;;;;;;;;;;;;;;;;5033966;28;19975;-24
2022/10/27 13:05:15;;;;;;;;;;;;;;;;;;5034870;28;19935;-24
2022/10/27 13:07:41;;;;;;;;;;;;;;;;;;5034136;28;19921;-23
2022/10/27 13:10:08;;;;;;;;;;;;;;;;;;5034132;28;19912;-24
2022/10/27 13:12:33;;;;;;;;;;;;;;;;;;5034206;28;20284;-24
2022/10/27 13:14:59;;;;;;;;;;;;;;;;;;5016413;28;19913;-24
2022/10/27 13:17:25;;;;;;;;;;;;;;;;;;5033850;28;19913;-23
2022/10/27 13:19:51;;;;;;;;;;;;;;;;;;5033974;28;19924;-24
2022/10/27 13:22:18;;;;;;;;;;;;;;;;;;5034103;28;19913;-23
2022/10/27 13:24:44;;;;;;;;;;;;;;;;;;5034423;28;19916;-24
2022/10/27 13:27:10;;;;;;;;;;;;;;;;;;5035072;28;19920;-24
2022/10/27 13:29:36;;;;;;;;;;;;;;;;;;5038030;28;19909;-24
2022/10/27 13:32:02;;;;;;;;;;;;;;;;;;5037991;28;19924;-24
2022/10/27 13:34:28;;;;;;;;;;;;;;;;;;5037623;28;19917;-23
2022/10/27 13:36:54;;;;;;;;;;;;;;;;;;5020152;28;20052;-23
2022/10/27 13:39:21;;;;;;;;;;;;;;;;;;5037573;28;19923;-23
2022/10/27 13:41:50;;;;;;;;;;;;;;;;;;5037411;28;19920;-23
2022/10/27 13:44:16;;;;;;;;;;;;;;;;;;5037700;28;20387;-23
2022/10/27 13:46:42;;;;;;;;;;;;;;;;;;5037871;28;19917;-23
2022/10/27 13:49:08;;;;;;;;;;;;;;;;;;5037509;28;19917;-23
2022/10/27 13:51:34;;;;;;;;;;;;;;;;;;5037275;28;20233;-23
2022/10/27 13:54:00;;;;;;;;;;;;;;;;;;5037217;28;19959;-23
2022/10/27 13:56:26;;;;;;;;;;;;;;;;;;5037541;28;19970;-23
2022/10/27 13:58:52;;;;;;;;;;;;;;;;;;5037576;28;19924;-23
2022/10/27 14:01:18;;;;;;;;;;;;;;;;;;5037139;28;19924;-23
2022/10/27 14:03:44;;;;;;;;;;;;;;;;;;5036704;28;19921;-23
2022/10/27 14:06:10;;;;;;;;;;;;;;;;;;5037076;28;19996;-23
2022/10/27 14:08:36;;;;;;;;;;;;;;;;;;5037121;28;19956;-23
2022/10/27 14:11:01;;;;;;;;;;;;;;;;;;5036970;28;19921;-23
2022/10/27 14:13:28;;;;;;;;;;;;;;;;;;5037066;28;20268;-22
2022/10/27 14:15:53;;;;;;;;;;;;;;;;;;5036925;28;19917;-23
2022/10/27 14:18:19;;;;;;;;;;;;;;;;;;5036913;28;19928;-25
2022/10/27 14:20:45;;;;;;;;;;;;;;;;;;5036959;28;19913;-26
2022/10/27 14:23:11;;;;;;;;;;;;;;;;;;5019066;28;20050;-25
2022/10/27 14:25:37;;;;;;;;;;;;;;;;;;5037089;28;19917;-25
2022/10/27 14:28:03;;;;;;;;;;;;;;;;;;5036765;28;19909;-24
2022/10/27 14:30:29;;;;;;;;;;;;;;;;;;5019271;28;19913;-24
2022/10/27 14:32:55;;;;;;;;;;;;;;;;;;5036774;28;19920;-24
2022/10/27 14:35:21;;;;;;;;;;;;;;;;;;5036985;28;19928;-24
2022/10/27 14:37:47;;;;;;;;;;;;;;;;;;5036653;28;19973;-24
2022/10/27 14:40:13;;;;;;;;;;;;;;;;;;5035828;28;20382;-24
2022/10/27 14:42:39;;;;;;;;;;;;;;;;;;5036235;28;19913;-24
2022/10/27 14:45:05;;;;;;;;;;;;;;;;;;5036466;28;19990;-24
2022/10/27 14:47:31;;;;;;;;;;;;;;;;;;5036215;28;20327;-24
2022/10/27 14:49:57;;;;;;;;;;;;;;;;;;5036222;28;19917;-24
2022/10/27 14:52:23;;;;;;;;;;;;;;;;;;5036226;28;19922;-24
2022/10/27 14:54:49;;;;;;;;;;;;;;;;;;5035890;28;20186;-24
2022/10/27 14:57:15;;;;;;;;;;;;;;;;;;5018403;28;20008;-24
2022/10/27 14:59:41;;;;;;;;;;;;;;;;;;5036279;28;19940;-23
2022/10/27 15:02:07;;;;;;;;;;;;;;;;;;5036191;28;20343;-23
2022/10/27 15:04:33;;;;;;;;;;;;;;;;;;5035837;28;19928;-24
2022/10/27 15:07:01;;;;;;;;;;;;;;;;;;5035817;28;19916;-24
2022/10/27 15:09:27;;;;;;;;;;;;;;;;;;5035897;28;19924;-24
2022/10/27 15:11:53;;;;;;;;;;;;;;;;;;5035810;28;19909;-24
2022/10/27 15:14:19;;;;;;;;;;;;;;;;;;5035581;28;20224;-24
2022/10/27 15:16:48;;;;;;;;;;;;;;;;;;5035336;28;20288;-24
2022/10/27 15:19:14;;;;;;;;;;;;;;;;;;5035390;28;19909;-24
2022/10/27 15:21:40;;;;;;;;;;;;;;;;;;5035023;28;19914;-23
2022/10/27 15:24:06;;;;;;;;;;;;;;;;;;5034993;28;19999;-23
2022/10/27 15:26:32;;;;;;;;;;;;;;;;;;5034883;28;20374;-23
2022/10/27 15:28:59;;;;;;;;;;;;;;;;;;5034875;28;19959;-23
2022/10/27 15:31:25;;;;;;;;;;;;;;;;;;5017627;28;19924;-23
2022/10/27 15:33:51;;;;;;;;;;;;;;;;;;5017453;28;19956;-23
2022/10/27 15:36:17;;;;;;;;;;;;;;;;;;5035098;28;19979;-23
2022/10/27 15:38:46;;;;;;;;;;;;;;;;;;5035291;28;19920;-23
2022/10/27 15:41:12;;;;;;;;;;;;;;;;;;5035493;28;19917;-24
2022/10/27 15:43:38;;;;;;;;;;;;;;;;;;5035407;28;20447;-24
2022/10/27 15:46:04;;;;;;;;;;;;;;;;;;5035396;28;19952;-24
2022/10/27 15:48:30;;;;;;;;;;;;;;;;;;5017732;28;19948;-24
2022/10/27 15:50:56;;;;;;;;;;;;;;;;;;5017327;28;20015;-23
2022/10/27 15:53:22;;;;;;;;;;;;;;;;;;5034869;28;20336;-23
2022/10/27 15:55:48;;;;;;;;;;;;;;;;;;5035202;28;19940;-23
2022/10/27 15:58:14;;;;;;;;;;;;;;;;;;5035144;28;19976;-24
2022/10/27 16:00:40;;;;;;;;;;;;;;;;;;5035241;28;19991;-24
2022/10/27 16:03:06;;;;;;;;;;;;;;;;;;5034583;28;20012;-24
2022/10/27 16:05:32;;;;;;;;;;;;;;;;;;5035137;28;19909;-24
2022/10/27 16:07:58;;;;;;;;;;;;;;;;;;5035342;28;19913;-24
2022/10/27 16:10:24;;;;;;;;;;;;;;;;;;5035035;28;19975;-24
2022/10/27 16:12:50;;;;;;;;;;;;;;;;;;5034873;28;19920;-24
2022/10/27 16:15:19;;;;;;;;;;;;;;;;;;5034800;28;19913;-24
2022/10/27 16:17:46;;;;;;;;;;;;;;;;;;5034910;28;19909;-24
2022/10/27 16:20:12;;;;;;;;;;;;;;;;;;5035176;28;20237;-24
2022/10/27 16:22:38;;;;;;;;;;;;;;;;;;5035067;28;19980;-24
2022/10/27 16:25:04;;;;;;;;;;;;;;;;;;5034672;28;20230;-24
2022/10/27 16:27:32;;;;;;;;;;;;;;;;;;5034706;28;19909;-24
2022/10/27 16:29:58;;;;;;;;;;;;;;;;;;5016810;28;20289;-23
2022/10/27 16:32:24;;;;;;;;;;;;;;;;;;5034306;28;20394;-24
2022/10/27 16:34:50;;;;;;;;;;;;;;;;;;5034982;28;19917;-24
2022/10/27 16:37:16;;;;;;;;;;;;;;;;;;5034375;28;19917;-23
2022/10/27 16:39:42;;;;;;;;;;;;;;;;;;5034639;28;19921;-24
2022/10/27 16:42:08;;;;;;;;;;;;;;;;;;5034585;28;20299;-24
2022/10/27 16:44:34;;;;;;;;;;;;;;;;;;5034621;28;19913;-24
2022/10/27 16:47:05;;;;;;;;;;;;;;;;;;5034555;28;20008;-24
2022/10/27 16:49:31;;;;;;;;;;;;;;;;;;5034544;28;19917;-24
2022/10/27 16:51:57;;;;;;;;;;;;;;;;;;5034392;28;19924;-24
2022/10/27 16:54:23;;;;;;;;;;;;;;;;;;5034840;28;19909;-24
2022/10/27 16:56:49;;;;;;;;;;;;;;;;;;5034434;28;19917;-24
2022/10/27 16:59:15;;;;;;;;;;;;;;;;;;5034736;28;20036;-24
2022/10/27 17:01:41;;;;;;;;;;;;;;;;;;5034818;28;19917;-24
2022/10/27 17:04:07;;;;;;;;;;;;;;;;;;5038195;28;19921;-24
2022/10/27 17:06:33;;;;;;;;;;;;;;;;;;5038851;28;20335;-24
2022/10/27 17:08:59;;;;;;;;;;;;;;;;;;5038458;28;19913;-23
2022/10/27 17:11:25;;;;;;;;;;;;;;;;;;5020573;28;19919;-24
2022/10/27 17:13:51;;;;;;;;;;;;;;;;;;5038031;28;19923;-24
2022/10/27 17:16:17;;;;;;;;;;;;;;;;;;5038089;28;19917;-24
2022/10/27 17:18:43;;;;;;;;;;;;;;;;;;5037865;28;19913;-24
2022/10/27 17:21:09;;;;;;;;;;;;;;;;;;5037889;28;19913;-24